Accueil
METAR-TAF:

METAR-TAF

Aéroports :

Apia, Upolu Island, Samoa

Aéroport d'Apia

latitude: 13-49S, longitude: 172-00W, altitude: 5 m

Observation

Le bulletin a été fait il y a 1 heure et 0 minutes, à 06:00 UTC
Vent 3 kt de sud
Température 26°C
Humidité 94%
Pression 1012 hPa
Visibilité 10 km ou plus
Quelques nuages à une hauteur de 2200 ft
Nuages épars à une hauteur de 28000 ft

METAR: NSFA 270600Z 18003KT 9999 FEW022 SCT280 26/25 Q1012

Heure: 20:00 (07:00 UTC)

Prévision

Le bulletin a été fait il y a 1 heure et 40 minutes, à 05:20 UTC
Prévision valable du 27 à 06 UTC au 28 à 06 UTC
Vent 6 kt de est
Visibilité 10 km ou plus
Nuages épars à une hauteur de 2000 ft
Nuages fragmentés à une hauteur de 10000 ft

TAF: NSFA 270520Z 2706/2806 10006KT 9999 SCT020 BKN100

Observations et prévisions météorologiques de plus de 4000 aéroports (messages METAR et TAF).

Les stations disponibles sont représentées par des disques jaunes et rouges sur la carte.

Passer la souris dessus pour voir le nom de la station.

Cliquer dessus pour voir les observations et prévisions météorologiques.

Pour changer de carte: cliquez sur les boutons verts avec une croix noire pour zoomer, sur le bouton vert avec un tiret pour effectuer un zoom arrière, ou sur les flèches vertes pour les cartes adjacentes.


METAR-TAF: